Time;durP1;ratioP1;P1;durP2;ratioP2;P2;SDS_P1;SDS_P2;PMS_P1;PMS_P2;Temp;Humidity;BMP_temperature;BMP_pressure;BME280_temperature;BME280_humidity;BME280_pressure;Samples;Min_cycle;Max_cycle;Signal;HPM_P1;HPM_P2
2022/10/26 00:00:52;;;;;;;8.33;4.53;;;;;;;13.39;100.00;98177.53;5163451;23;20605;-90
2022/10/26 00:02:55;;;;;;;7.13;5.10;;;;;;;13.38;100.00;98167.97;5139159;23;20582;-90
2022/10/26 00:04:58;;;;;;;17.17;5.30;;;;;;;13.32;100.00;98158.84;5138021;23;20593;-91
2022/10/26 00:07:01;;;;;;;7.33;5.30;;;;;;;13.29;100.00;98164.31;5138741;23;20574;-89
2022/10/26 00:09:04;;;;;;;6.10;4.70;;;;;;;13.28;100.00;98161.81;5163668;22;20632;-91
2022/10/26 00:11:08;;;;;;;8.63;5.43;;;;;;;13.30;100.00;98167.75;5138792;23;20629;-90
2022/10/26 00:13:13;;;;;;;8.87;5.33;;;;;;;13.28;100.00;98156.56;5138637;23;21118;-91
2022/10/26 00:15:16;;;;;;;7.07;4.77;;;;;;;13.27;100.00;98162.75;5138261;23;20582;-91
2022/10/26 00:17:19;;;;;;;7.97;5.50;;;;;;;13.26;100.00;98153.22;5163885;23;20575;-90
2022/10/26 00:19:22;;;;;;;6.90;4.90;;;;;;;13.28;100.00;98170.50;5163536;23;20598;-91
2022/10/26 00:21:25;;;;;;;12.40;5.20;;;;;;;13.29;100.00;98168.69;5190730;22;20638;-90
2022/10/26 00:23:29;;;;;;;7.27;5.20;;;;;;;13.27;100.00;98157.53;5138375;23;20583;-90
2022/10/26 00:25:32;;;;;;;7.13;4.90;;;;;;;13.27;100.00;98153.09;5138199;23;20600;-91
2022/10/26 00:27:35;;;;;;;7.60;4.87;;;;;;;13.29;100.00;98150.38;5163647;23;21208;-90
2022/10/26 00:29:39;;;;;;;6.67;4.80;;;;;;;13.31;100.00;98157.16;5163894;23;20570;-90
2022/10/26 00:31:42;;;;;;;8.93;4.77;;;;;;;13.33;100.00;98157.88;5163576;23;20570;-91
2022/10/26 00:33:46;;;;;;;8.10;4.80;;;;;;;13.34;100.00;98163.97;5138068;23;20583;-91
2022/10/26 00:35:53;;;;;;;7.40;4.33;;;;;;;13.35;100.00;98157.75;5137958;23;20618;-91
2022/10/26 00:37:56;;;;;;;5.60;4.30;;;;;;;13.37;100.00;98158.47;5138722;23;20621;-91
2022/10/26 00:39:59;;;;;;;9.73;4.60;;;;;;;13.39;100.00;98161.81;5190456;22;20609;-91
2022/10/26 00:42:02;;;;;;;8.87;4.70;;;;;;;13.37;100.00;98163.72;5138442;23;21193;-90
2022/10/26 00:44:47;;;;;;;6.83;4.70;;;;;;;13.37;100.00;98161.09;5138347;23;21291;-91
2022/10/26 00:46:50;;;;;;;11.43;6.10;;;;;;;13.37;100.00;98161.09;5163863;23;20564;-90
2022/10/26 00:48:55;;;;;;;9.03;4.00;;;;;;;13.38;100.00;98165.38;5164024;23;21274;-91
2022/10/26 00:51:00;;;;;;;4.90;4.33;;;;;;;13.38;100.00;98165.38;5140131;23;20974;-91
2022/10/26 00:53:05;;;;;;;13.13;5.07;;;;;;;13.38;100.00;98160.97;5192178;22;20609;-91
2022/10/26 00:55:08;;;;;;;6.57;4.83;;;;;;;13.39;100.00;98156.56;5164747;23;20903;-90
2022/10/26 00:57:12;;;;;;;6.70;4.90;;;;;;;13.40;100.00;98161.69;5139756;23;20618;-91
2022/10/26 00:59:15;;;;;;;8.77;4.43;;;;;;;13.41;100.00;98155.50;5165535;23;20574;-91
2022/10/26 01:01:20;;;;;;;6.43;4.70;;;;;;;13.43;100.00;98158.00;5139826;23;20642;-91
2022/10/26 01:03:24;;;;;;;6.17;4.57;;;;;;;13.43;100.00;98160.63;5165326;23;20630;-91
2022/10/26 01:05:28;;;;;;;8.80;4.90;;;;;;;13.44;100.00;98159.66;5164654;23;20667;-90
2022/10/26 01:07:31;;;;;;;7.87;4.87;;;;;;;13.44;100.00;98154.41;5164967;22;20566;-91
2022/10/26 01:09:34;;;;;;;8.10;4.67;;;;;;;13.45;100.00;98162.16;5140070;23;21067;-90
2022/10/26 01:11:37;;;;;;;8.10;4.77;;;;;;;13.46;100.00;98163.00;5164580;23;20626;-90
2022/10/26 01:13:42;;;;;;;5.57;4.77;;;;;;;13.45;100.00;98151.66;5164774;23;20667;-90
2022/10/26 01:15:50;;;;;;;12.03;4.80;;;;;;;13.46;100.00;98168.25;5139665;23;21396;-91
2022/10/26 01:17:57;;;;;;;11.73;5.50;;;;;;;13.45;100.00;98163.94;5164957;23;20580;-92
2022/10/26 01:20:33;;;;;;;7.30;5.20;;;;;;;13.47;100.00;98164.66;5192304;22;20973;-91
2022/10/26 01:22:39;;;;;;;8.40;5.13;;;;;;;13.47;100.00;98165.50;5130554;23;20594;-91
2022/10/26 01:25:02;;;;;;;12.30;5.60;;;;;;;13.48;100.00;98166.31;5164737;23;20612;-91
2022/10/26 01:27:14;;;;;;;12.80;4.90;;;;;;;13.48;100.00;98176.81;5190542;22;20583;-91
2022/10/26 01:29:33;;;;;;;7.07;5.03;;;;;;;13.49;100.00;98170.63;5165243;23;20604;-91
2022/10/26 01:31:41;;;;;;;7.83;5.03;;;;;;;13.50;100.00;98172.28;5164308;23;20588;-91
2022/10/26 01:33:46;;;;;;;5.70;4.70;;;;;;;13.50;100.00;98165.25;5165153;23;20572;-91
2022/10/26 01:35:54;;;;;;;6.20;4.80;;;;;;;13.51;100.00;98163.47;5139401;23;20683;-90
2022/10/26 01:38:01;;;;;;;6.90;4.80;;;;;;;13.52;100.00;98158.09;5139699;23;20935;-92
2022/10/26 01:40:06;;;;;;;10.97;5.13;;;;;;;13.51;100.00;98160.84;5163575;23;20656;-91
2022/10/26 01:42:11;;;;;;;8.20;5.73;;;;;;;13.50;100.00;98160.03;5139566;23;20644;-91
2022/10/26 01:44:18;;;;;;;11.30;4.90;;;;;;;13.51;100.00;98156.44;5139727;23;21121;-91
2022/10/26 01:46:22;;;;;;;11.47;5.20;;;;;;;13.50;100.00;98149.53;5191809;22;20605;-90
2022/10/26 01:48:28;;;;;;;15.40;4.60;;;;;;;13.52;100.00;98152.03;5190847;22;20695;-91
2022/10/26 01:50:32;;;;;;;12.70;4.67;;;;;;;13.51;100.00;98143.31;5164885;23;20588;-91
2022/10/26 01:52:35;;;;;;;7.37;4.57;;;;;;;13.53;100.00;98144.06;5139514;23;20581;-91
2022/10/26 01:54:38;;;;;;;6.13;5.13;;;;;;;13.55;100.00;98146.56;5139374;23;20600;-91
2022/10/26 01:56:43;;;;;;;11.80;4.50;;;;;;;13.55;100.00;98136.06;5191157;22;20559;-91
2022/10/26 01:59:11;;;;;;;7.63;4.80;;;;;;;13.54;100.00;98134.41;5139424;23;20616;-90
2022/10/26 02:01:30;;;;;;;7.73;4.43;;;;;;;13.55;100.00;98128.22;5164683;23;20556;-91
2022/10/26 02:03:38;;;;;;;5.60;4.70;;;;;;;13.55;100.00;98120.34;5164957;23;20618;-91
2022/10/26 02:05:51;;;;;;;9.27;5.00;;;;;;;13.53;100.00;98117.84;5139369;23;20596;-92
2022/10/26 02:07:57;;;;;;;7.90;4.53;;;;;;;13.55;100.00;98125.59;5139657;23;20613;-91
2022/10/26 02:10:08;;;;;;;8.50;5.30;;;;;;;13.54;100.00;98108.19;5164396;23;20673;-91
2022/10/26 02:12:18;;;;;;;7.73;4.30;;;;;;;13.55;100.00;98109.88;5139382;23;20594;-90
2022/10/26 02:14:25;;;;;;;10.73;4.80;;;;;;;13.55;100.00;98115.09;5139030;23;20664;-91
2022/10/26 02:16:32;;;;;;;10.40;4.50;;;;;;;13.52;100.00;98108.31;5163945;23;20616;-92
2022/10/26 02:18:41;;;;;;;9.60;5.60;;;;;;;13.53;100.00;98104.75;5139566;23;20633;-90
2022/10/26 02:20:47;;;;;;;6.60;5.00;;;;;;;13.57;100.00;98110.56;5164049;23;20595;-91
2022/10/26 02:22:50;;;;;;;9.47;5.47;;;;;;;13.58;100.00;98105.22;5164602;23;21120;-91
2022/10/26 02:24:54;;;;;;;6.70;4.97;;;;;;;13.60;100.00;98107.72;5164349;23;21181;-91
2022/10/26 02:26:58;;;;;;;7.47;4.97;;;;;;;13.62;100.00;98103.16;5139796;23;20581;-91
2022/10/26 02:29:05;;;;;;;5.30;4.80;;;;;;;13.60;100.00;98103.28;5164925;23;20610;-89
2022/10/26 02:31:09;;;;;;;8.00;4.87;;;;;;;13.60;100.00;98098.03;5191359;22;20618;-91
2022/10/26 02:33:13;;;;;;;11.03;4.90;;;;;;;13.59;100.00;98100.78;5163251;23;20584;-90
2022/10/26 02:35:20;;;;;;;8.23;4.70;;;;;;;13.59;100.00;98092.94;5138772;23;20950;-91
2022/10/26 02:37:24;;;;;;;6.87;4.87;;;;;;;13.61;100.00;98101.53;5164542;23;20568;-91
2022/10/26 02:39:28;;;;;;;10.97;4.97;;;;;;;13.63;100.00;98107.47;5191272;22;20556;-91
2022/10/26 02:41:32;;;;;;;12.77;6.33;;;;;;;13.63;100.00;98113.53;5190980;22;20672;-91
2022/10/26 02:43:41;;;;;;;6.00;4.60;;;;;;;13.63;100.00;98123.19;5164188;23;20605;-90
2022/10/26 02:45:48;;;;;;;12.67;5.20;;;;;;;13.62;100.00;98116.25;5163944;23;20665;-90
2022/10/26 02:47:51;;;;;;;6.97;4.80;;;;;;;13.59;100.00;98127.00;5163867;23;20574;-91
2022/10/26 02:49:55;;;;;;;8.20;4.63;;;;;;;13.60;100.00;98124.25;5164285;23;20649;-91
2022/10/26 02:52:03;;;;;;;7.70;4.97;;;;;;;13.61;100.00;98123.31;5164732;23;21032;-91
2022/10/26 02:54:14;;;;;;;7.00;4.67;;;;;;;13.62;100.00;98117.13;5139178;23;20636;-90
2022/10/26 02:56:20;;;;;;;5.80;4.40;;;;;;;13.63;100.00;98128.44;5164518;23;20576;-91
2022/10/26 02:58:26;;;;;;;7.20;4.50;;;;;;;13.64;100.00;98140.59;5139462;23;20580;-91
2022/10/26 03:00:29;;;;;;;10.30;4.97;;;;;;;13.62;100.00;98134.63;5138816;23;20582;-90
2022/10/26 03:02:32;;;;;;;7.30;4.23;;;;;;;13.62;100.00;98140.72;5164066;23;20586;-91
2022/10/26 03:04:35;;;;;;;6.83;4.80;;;;;;;13.62;100.00;98143.34;5138530;23;20579;-90
2022/10/26 03:06:38;;;;;;;5.90;4.53;;;;;;;13.62;100.00;98145.09;5164229;23;20584;-91
2022/10/26 03:08:43;;;;;;;7.30;4.60;;;;;;;13.62;100.00;98150.34;5139178;23;20663;-91
2022/10/26 03:10:46;;;;;;;8.80;4.20;;;;;;;13.62;100.00;98159.06;5138666;23;20606;-91
2022/10/26 03:12:49;;;;;;;7.17;4.50;;;;;;;13.63;100.00;98157.25;5189438;22;21154;-90
2022/10/26 03:14:52;;;;;;;7.40;4.70;;;;;;;13.64;100.00;98152.72;5190246;22;20902;-90
2022/10/26 03:16:55;;;;;;;14.00;4.80;;;;;;;13.64;100.00;98163.19;5139015;23;20583;-90
2022/10/26 03:18:58;;;;;;;6.77;4.90;;;;;;;13.65;100.00;98154.41;5164194;23;21032;-91
2022/10/26 03:21:01;;;;;;;7.77;5.03;;;;;;;13.63;100.00;98155.47;5138758;23;20586;-90
2022/10/26 03:23:04;;;;;;;7.80;5.80;;;;;;;13.63;100.00;98154.63;5163916;23;20613;-90
2022/10/26 03:25:09;;;;;;;8.07;5.03;;;;;;;13.63;100.00;98158.06;5137940;23;20687;-91
2022/10/26 03:27:13;;;;;;;11.27;5.20;;;;;;;13.65;100.00;98158.78;5138999;23;20672;-90
2022/10/26 03:29:16;;;;;;;7.30;4.63;;;;;;;13.65;100.00;98164.88;5163833;23;20617;-90
2022/10/26 03:31:19;;;;;;;10.40;5.00;;;;;;;13.65;100.00;98175.38;5138918;23;20640;-91
2022/10/26 03:33:22;;;;;;;11.40;8.13;;;;;;;13.66;100.00;98166.53;5163493;23;20657;-90
2022/10/26 03:35:29;;;;;;;11.40;5.57;;;;;;;13.65;100.00;98167.50;5190255;22;20580;-91
2022/10/26 03:37:32;;;;;;;6.60;5.50;;;;;;;13.64;100.00;98178.94;5139171;23;20609;-92
2022/10/26 03:39:35;;;;;;;7.63;5.10;;;;;;;13.65;100.00;98175.38;5137081;23;21213;-91
2022/10/26 03:41:40;;;;;;;9.73;4.90;;;;;;;13.64;100.00;98178.94;5138208;23;20592;-91
2022/10/26 03:43:43;;;;;;;6.73;5.13;;;;;;;13.63;100.00;98171.19;5138412;23;20620;-91
2022/10/26 03:45:46;;;;;;;8.73;4.57;;;;;;;13.63;100.00;98186.09;5163682;23;20648;-90
2022/10/26 03:47:50;;;;;;;5.60;4.60;;;;;;;13.64;100.00;98185.16;5163138;23;20576;-91
2022/10/26 03:49:52;;;;;;;9.63;4.97;;;;;;;13.62;100.00;98177.41;5164017;23;20708;-90
2022/10/26 03:51:56;;;;;;;7.73;5.07;;;;;;;13.62;100.00;98173.94;5163671;23;21255;-89
2022/10/26 03:53:58;;;;;;;9.50;4.80;;;;;;;13.63;100.00;98180.84;5163397;23;20622;-90
2022/10/26 03:56:02;;;;;;;9.30;4.83;;;;;;;13.64;100.00;98193.00;5163570;23;21257;-90
2022/10/26 03:58:06;;;;;;;11.70;5.07;;;;;;;13.63;100.00;98197.41;5138160;23;20585;-91
2022/10/26 04:00:10;;;;;;;7.43;5.00;;;;;;;13.64;100.00;98193.84;5138584;23;20582;-91
2022/10/26 04:02:14;;;;;;;11.87;5.30;;;;;;;13.64;100.00;98192.03;5164001;23;20588;-91
2022/10/26 04:04:17;;;;;;;6.03;4.40;;;;;;;13.67;100.00;98198.81;5138517;23;20575;-92
2022/10/26 04:06:20;;;;;;;6.33;4.80;;;;;;;13.70;100.00;98198.59;5138418;23;21275;-91
2022/10/26 04:08:23;;;;;;;8.07;4.60;;;;;;;13.70;100.00;98202.03;5163442;22;20605;-91
2022/10/26 04:10:27;;;;;;;9.60;5.03;;;;;;;13.73;100.00;98214.06;5163519;23;20721;-92
2022/10/26 04:12:30;;;;;;;6.17;4.80;;;;;;;13.74;100.00;98215.72;5191289;22;20595;-90
2022/10/26 04:14:35;;;;;;;7.57;5.07;;;;;;;13.76;100.00;98214.66;5163400;23;20593;-91
2022/10/26 04:16:38;;;;;;;8.77;4.13;;;;;;;13.78;100.00;98204.88;5138820;23;20583;-90
2022/10/26 04:18:41;;;;;;;6.73;4.97;;;;;;;13.80;100.00;98205.59;5138720;23;20575;-91
2022/10/26 04:20:44;;;;;;;11.80;7.20;;;;;;;13.82;100.00;98208.09;5138946;23;20576;-92
2022/10/26 04:22:47;;;;;;;8.03;4.30;;;;;;;13.82;100.00;98208.94;5138318;23;20570;-90
2022/10/26 04:24:50;;;;;;;11.57;4.73;;;;;;;13.84;100.00;98211.44;5163035;23;20636;-91
2022/10/26 04:26:53;;;;;;;7.93;5.10;;;;;;;13.83;100.00;98207.97;5165345;23;20583;-91
2022/10/26 04:28:56;;;;;;;9.30;5.10;;;;;;;13.81;100.00;98204.63;5140467;23;20657;-91
2022/10/26 04:31:00;;;;;;;7.23;4.77;;;;;;;13.78;100.00;98207.50;5165134;23;20774;-91
2022/10/26 04:33:03;;;;;;;8.80;4.90;;;;;;;13.68;100.00;98196.09;5140625;23;20944;-90
2022/10/26 04:35:07;;;;;;;6.47;5.00;;;;;;;13.62;100.00;98187.88;5140252;23;20578;-91
2022/10/26 04:37:16;;;;;;;11.27;6.33;;;;;;;13.58;100.00;98185.63;5139927;23;21184;-91
2022/10/26 04:39:19;;;;;;;6.57;4.70;;;;;;;13.56;100.00;98179.66;5140175;23;20578;-91
2022/10/26 04:41:22;;;;;;;8.93;4.60;;;;;;;13.55;100.00;98167.53;5192483;22;20658;-90
2022/10/26 04:43:25;;;;;;;6.83;4.90;;;;;;;13.54;100.00;98166.66;5165659;23;20981;-92
2022/10/26 04:45:29;;;;;;;5.77;5.00;;;;;;;13.54;100.00;98157.97;5140246;23;20574;-91
2022/10/26 04:47:34;;;;;;;7.30;4.67;;;;;;;13.56;100.00;98153.44;5165143;23;20585;-91
2022/10/26 04:49:37;;;;;;;10.43;4.30;;;;;;;13.58;100.00;98156.78;5165303;23;20576;-91
2022/10/26 04:51:40;;;;;;;6.83;4.60;;;;;;;13.59;100.00;98150.56;5140057;23;20617;-91
2022/10/26 04:53:46;;;;;;;7.50;4.20;;;;;;;13.59;100.00;98151.44;5165484;23;20584;-91
2022/10/26 04:55:48;;;;;;;6.70;4.23;;;;;;;13.61;100.00;98156.56;5138620;23;20577;-89
2022/10/26 04:57:51;;;;;;;11.73;5.03;;;;;;;13.60;100.00;98152.25;5164800;23;21161;-91
2022/10/26 05:00:00;;;;;;;10.60;5.60;;;;;;;13.60;100.00;98170.59;5165502;23;20623;-91
2022/10/26 05:02:03;;;;;;;7.33;5.50;;;;;;;13.60;100.00;98158.31;5191540;22;20572;-91
2022/10/26 05:04:08;;;;;;;12.80;7.90;;;;;;;13.62;100.00;98163.44;5140101;23;20580;-91
2022/10/26 05:06:11;;;;;;;9.17;5.53;;;;;;;13.64;100.00;98168.44;5165128;23;20580;-91
2022/10/26 05:08:14;;;;;;;6.43;4.80;;;;;;;13.64;100.00;98162.38;5165518;22;20699;-90
2022/10/26 05:10:17;;;;;;;8.67;5.23;;;;;;;13.60;100.00;98160.94;5139860;23;20574;-91
2022/10/26 05:12:21;;;;;;;5.63;4.80;;;;;;;13.60;100.00;98168.81;5164458;23;20579;-91
2022/10/26 05:14:24;;;;;;;9.50;5.40;;;;;;;13.61;100.00;98172.28;5139896;23;20582;-90
2022/10/26 05:16:27;;;;;;;11.13;5.13;;;;;;;13.63;100.00;98180.84;5139800;23;20693;-91
2022/10/26 05:18:30;;;;;;;7.17;4.80;;;;;;;13.64;100.00;98178.94;5164712;23;20569;-90
2022/10/26 05:20:35;;;;;;;10.00;4.83;;;;;;;13.64;100.00;98168.44;5165007;23;20574;-91
2022/10/26 05:22:38;;;;;;;6.90;4.77;;;;;;;13.64;100.00;98172.88;5165027;23;20641;-90
2022/10/26 05:24:41;;;;;;;9.13;5.07;;;;;;;13.65;100.00;98170.13;5191276;22;20619;-90
2022/10/26 05:26:44;;;;;;;12.90;5.53;;;;;;;13.67;100.00;98175.25;5139624;23;20930;-90
2022/10/26 05:28:47;;;;;;;9.80;4.80;;;;;;;13.66;100.00;98177.00;5164963;23;20603;-91
2022/10/26 05:30:51;;;;;;;7.73;4.87;;;;;;;13.65;100.00;98182.38;5164738;23;20606;-90
2022/10/26 05:32:54;;;;;;;7.23;4.97;;;;;;;13.66;100.00;98179.63;5139238;23;20584;-91
2022/10/26 05:34:57;;;;;;;8.07;5.60;;;;;;;13.69;100.00;98186.44;5163691;23;20583;-91
2022/10/26 05:37:01;;;;;;;6.67;4.97;;;;;;;13.71;100.00;98174.03;5164830;23;20682;-91
2022/10/26 05:39:05;;;;;;;9.00;4.60;;;;;;;13.74;100.00;98179.88;5191848;22;20577;-91
2022/10/26 05:41:08;;;;;;;6.63;5.20;;;;;;;13.75;100.00;98188.56;5139915;23;20591;-91
2022/10/26 05:43:11;;;;;;;8.50;6.03;;;;;;;13.74;100.00;98190.38;5164913;23;20584;-91
2022/10/26 05:45:16;;;;;;;7.37;5.30;;;;;;;13.77;100.00;98200.59;5139431;23;20628;-91
2022/10/26 05:47:19;;;;;;;8.83;5.37;;;;;;;13.79;100.00;98205.72;5164673;23;20597;-91
2022/10/26 05:49:22;;;;;;;7.30;5.23;;;;;;;13.78;100.00;98202.25;5139020;23;20626;-92
2022/10/26 05:51:25;;;;;;;8.10;5.60;;;;;;;13.79;100.00;98201.31;5191319;22;21173;-93
2022/10/26 05:53:29;;;;;;;9.80;5.47;;;;;;;13.80;100.00;98204.75;5191495;22;21022;-91
2022/10/26 05:55:33;;;;;;;10.73;5.93;;;;;;;13.80;100.00;98205.59;5139386;23;20653;-91
2022/10/26 05:57:36;;;;;;;9.33;5.97;;;;;;;13.79;100.00;98209.16;5164453;23;20672;-91
2022/10/26 05:59:40;;;;;;;9.90;5.73;;;;;;;13.78;100.00;98202.25;5139700;23;20574;-90
2022/10/26 06:02:01;;;;;;;8.00;6.10;;;;;;;13.79;100.00;98221.47;5138510;23;20574;-90
2022/10/26 06:04:15;;;;;;;10.53;6.13;;;;;;;13.79;100.00;98230.16;5164953;23;20630;-91
2022/10/26 06:06:19;;;;;;;7.80;6.73;;;;;;;13.79;100.00;98230.16;5164949;23;20589;-91
2022/10/26 06:08:24;;;;;;;7.73;6.13;;;;;;;13.81;100.00;98232.66;5139671;23;20613;-90
2022/10/26 06:10:29;;;;;;;9.53;6.70;;;;;;;13.82;100.00;98239.56;5191903;22;20626;-91
2022/10/26 06:12:33;;;;;;;11.53;6.63;;;;;;;13.82;100.00;98240.38;5139855;23;20638;-90
2022/10/26 06:14:37;;;;;;;8.60;5.63;;;;;;;13.85;100.00;98244.56;5164750;23;20580;-91
2022/10/26 06:16:56;;;;;;;7.20;6.10;;;;;;;13.85;100.00;98244.56;5165198;23;20574;-91
2022/10/26 06:19:07;;;;;;;19.10;6.50;;;;;;;13.86;100.00;98246.22;5165048;23;20588;-91
2022/10/26 06:21:17;;;;;;;10.33;7.23;;;;;;;13.86;100.00;98252.31;5139790;23;20589;-91
2022/10/26 06:23:33;;;;;;;8.90;7.10;;;;;;;13.89;100.00;98248.59;5164981;23;20585;-90
2022/10/26 06:25:44;;;;;;;11.30;6.73;;;;;;;13.88;100.00;98250.41;5164699;23;20573;-90
2022/10/26 06:27:52;;;;;;;8.77;7.00;;;;;;;13.90;100.00;98264.22;5139944;23;20582;-92
2022/10/26 06:29:59;;;;;;;9.83;6.93;;;;;;;13.91;100.00;98267.69;5139788;23;20610;-90
2022/10/26 06:32:02;;;;;;;9.50;7.00;;;;;;;13.91;100.00;98271.13;5164888;23;21171;-91
2022/10/26 06:34:08;;;;;;;10.00;7.27;;;;;;;13.91;100.00;98286.88;5164609;23;20610;-91
2022/10/26 06:36:20;;;;;;;12.30;8.03;;;;;;;13.93;100.00;98277.06;5139644;23;20645;-90
2022/10/26 06:38:25;;;;;;;16.50;11.17;;;;;;;13.95;100.00;98285.69;5191982;22;20528;-91
2022/10/26 06:40:31;;;;;;;19.00;13.73;;;;;;;13.97;100.00;98280.31;5164173;23;20577;-91
2022/10/26 06:42:36;;;;;;;20.30;15.07;;;;;;;13.98;100.00;98301.19;5164899;23;20636;-91
2022/10/26 06:44:40;;;;;;;16.27;11.10;;;;;;;13.99;100.00;98294.97;5139622;23;20576;-91
2022/10/26 06:46:46;;;;;;;9.70;7.70;;;;;;;13.99;100.00;98309.88;5139589;23;20578;-91
2022/10/26 06:48:53;;;;;;;11.37;6.53;;;;;;;14.00;100.00;98312.38;5164536;23;21041;-91
2022/10/26 06:50:57;;;;;;;8.93;6.50;;;;;;;14.00;100.00;98307.13;5164683;23;20635;-91
2022/10/26 06:53:06;;;;;;;12.97;7.53;;;;;;;14.03;100.00;98311.31;5164721;23;20643;-91
2022/10/26 06:55:13;;;;;;;11.50;7.63;;;;;;;14.05;100.00;98325.16;5163627;23;20615;-91
2022/10/26 06:57:18;;;;;;;11.27;6.90;;;;;;;14.07;100.00;98323.25;5164508;23;20569;-91
2022/10/26 06:59:32;;;;;;;7.70;6.37;;;;;;;14.07;100.00;98320.63;5140063;23;20589;-91
2022/10/26 07:01:35;;;;;;;10.00;5.90;;;;;;;14.06;100.00;98317.16;5164211;23;20578;-91
2022/10/26 07:03:38;;;;;;;11.50;7.03;;;;;;;14.06;100.00;98327.66;5139496;23;20575;-90
2022/10/26 07:05:42;;;;;;;10.80;7.30;;;;;;;14.06;100.00;98338.16;5139239;23;21067;-90
2022/10/26 07:07:47;;;;;;;11.07;7.40;;;;;;;14.06;100.00;98346.03;5164388;22;20611;-91
2022/10/26 07:09:52;;;;;;;9.77;8.03;;;;;;;14.08;100.00;98346.72;5139616;23;20613;-93
2022/10/26 07:11:55;;;;;;;9.77;7.63;;;;;;;14.08;100.00;98346.72;5164515;23;20648;-91
2022/10/26 07:13:58;;;;;;;9.53;7.57;;;;;;;14.08;100.00;98341.47;5164281;23;20569;-93
2022/10/26 07:16:03;;;;;;;11.63;8.40;;;;;;;14.09;100.00;98347.56;5164526;23;20592;-91
2022/10/26 07:18:07;;;;;;;9.50;7.77;;;;;;;14.08;100.00;98345.91;5164357;23;20586;-90
2022/10/26 07:20:11;;;;;;;14.30;8.47;;;;;;;14.10;100.00;98338.75;5164476;23;20576;-90
2022/10/26 07:22:14;;;;;;;10.37;7.67;;;;;;;14.11;100.00;98343.03;5139273;23;20573;-90
2022/10/26 07:24:17;;;;;;;12.40;7.10;;;;;;;14.10;100.00;98344.81;5191006;22;20908;-90
2022/10/26 07:26:20;;;;;;;9.83;6.97;;;;;;;14.13;100.00;98341.13;5190211;22;21122;-89
2022/10/26 07:28:23;;;;;;;9.63;6.43;;;;;;;14.15;100.00;98337.44;5163900;23;20577;-91
2022/10/26 07:30:27;;;;;;;7.40;6.00;;;;;;;14.18;100.00;98345.06;5138742;23;20626;-91
2022/10/26 07:32:31;;;;;;;9.50;7.13;;;;;;;14.21;100.00;98344.81;5138722;23;20701;-91
2022/10/26 07:34:34;;;;;;;7.83;6.00;;;;;;;14.26;100.00;98340.03;5138090;23;20586;-90
2022/10/26 07:36:38;;;;;;;15.40;7.77;;;;;;;14.28;100.00;98354.72;5138981;23;21149;-91
2022/10/26 07:38:41;;;;;;;10.00;6.57;;;;;;;14.27;100.00;98342.53;5190926;22;20553;-91
2022/10/26 07:40:45;;;;;;;9.73;7.27;;;;;;;14.28;100.00;98361.72;5138293;23;20570;-92
2022/10/26 07:42:48;;;;;;;9.70;6.20;;;;;;;14.29;100.00;98356.38;5190697;22;20569;-91
2022/10/26 07:44:51;;;;;;;9.23;6.03;;;;;;;14.34;100.00;98359.47;5163912;23;20680;-92
2022/10/26 07:46:54;;;;;;;16.00;7.07;;;;;;;14.38;100.00;98349.56;5163892;23;20635;-91
2022/10/26 07:48:58;;;;;;;7.50;6.60;;;;;;;14.42;100.00;98361.50;5163946;23;20596;-90
2022/10/26 07:51:02;;;;;;;5.80;5.07;;;;;;;14.46;100.00;98378.66;5163862;23;20951;-91
2022/10/26 07:53:05;;;;;;;5.27;4.40;;;;;;;14.51;100.00;98371.25;5163553;23;20606;-90
2022/10/26 07:55:09;;;;;;;7.83;4.10;;;;;;;14.59;100.00;98370.50;5138221;23;20570;-91
2022/10/26 07:57:12;;;;;;;5.80;4.60;;;;;;;14.65;100.00;98377.91;5138437;23;20622;-89
2022/10/26 07:59:15;;;;;;;6.47;4.80;;;;;;;14.69;100.00;98366.22;5162956;23;20586;-90
2022/10/26 08:01:18;;;;;;;5.60;3.60;;;;;;;14.74;100.00;98369.28;5162724;23;20577;-91
2022/10/26 08:03:22;;;;;;;4.80;3.40;;;;;;;14.78;100.00;98373.34;5164227;23;20544;-90
2022/10/26 08:05:27;;;;;;;4.37;3.53;;;;;;;14.83;100.00;98373.81;5163809;23;20629;-90
2022/10/26 08:07:30;;;;;;;5.70;3.43;;;;;;;14.87;100.00;98374.38;5164028;22;20665;-91
2022/10/26 08:09:33;;;;;;;5.67;3.50;;;;;;;14.91;100.00;98387.13;5190717;22;20586;-90
2022/10/26 08:11:36;;;;;;;7.47;3.90;;;;;;;14.96;100.00;98379.75;5164123;23;21156;-90
2022/10/26 08:13:39;;;;;;;5.77;3.60;;;;;;;14.98;100.00;98377.81;5162324;23;20708;-90
2022/10/26 08:15:42;;;;;;;6.20;3.97;;;;;;;15.01;100.00;98382.81;5188543;22;20564;-91
2022/10/26 08:17:45;;;;;;;4.33;3.80;;;;;;;15.03;100.00;98380.91;5138415;23;20582;-90
2022/10/26 08:19:49;;;;;;;6.40;4.93;;;;;;;15.07;100.00;98377.91;5138476;23;20889;-90
2022/10/26 08:21:53;;;;;;;6.43;4.80;;;;;;;15.11;100.00;98384.56;5164239;23;20621;-89
2022/10/26 08:23:56;;;;;;;6.67;4.70;;;;;;;15.17;100.00;98376.22;5164241;23;20879;-90
2022/10/26 08:26:00;;;;;;;6.93;4.33;;;;;;;15.22;100.00;98371.41;5138635;23;20574;-89
2022/10/26 08:28:03;;;;;;;6.40;4.60;;;;;;;15.27;100.00;98373.66;5139040;23;20590;-90
2022/10/26 08:30:07;;;;;;;8.30;5.13;;;;;;;15.32;100.00;98371.47;5164491;23;21155;-89
2022/10/26 08:32:10;;;;;;;6.37;4.80;;;;;;;15.41;100.00;98360.22;5138801;23;20993;-89
2022/10/26 08:34:13;;;;;;;6.60;4.83;;;;;;;15.47;100.00;98362.31;5138598;23;20612;-90
2022/10/26 08:36:20;;;;;;;7.10;5.10;;;;;;;15.54;100.00;98368.75;5189417;22;20628;-89
2022/10/26 08:38:24;;;;;;;5.87;4.70;;;;;;;15.60;100.00;98369.88;5164147;23;20645;-90
2022/10/26 08:40:30;;;;;;;8.20;4.43;;;;;;;15.68;100.00;98380.63;5163744;23;20578;-89
2022/10/26 08:42:38;;;;;;;6.57;4.00;;;;;;;15.73;100.00;98386.31;5164515;23;20563;-90
2022/10/26 08:44:44;;;;;;;10.70;5.70;;;;;;;15.77;100.00;98389.50;5190391;22;20574;-90
2022/10/26 08:46:50;;;;;;;8.10;6.00;;;;;;;15.84;100.00;98386.25;5138529;23;20611;-89
2022/10/26 08:48:56;;;;;;;6.27;5.40;;;;;;;15.92;100.00;98386.44;5137784;23;21176;-89
2022/10/26 08:51:02;;;;;;;9.77;6.20;;;;;;;15.99;100.00;98390.22;5163980;23;20585;-89
2022/10/26 08:53:08;;;;;;;6.93;5.73;;;;;;;16.07;100.00;98388.59;5138381;23;20620;-89
2022/10/26 08:55:16;;;;;;;12.27;5.07;;;;;;;16.16;100.00;98390.44;5163159;23;20588;-88
2022/10/26 08:57:24;;;;;;;8.57;4.77;;;;;;;16.23;100.00;98398.66;5163494;23;20639;-90
2022/10/26 08:59:31;;;;;;;5.40;4.10;;;;;;;16.29;100.00;98398.16;5163569;23;20570;-89
2022/10/26 09:01:34;;;;;;;6.83;4.50;;;;;;;16.36;100.00;98401.94;5138690;23;20620;-90
2022/10/26 09:03:38;;;;;;;8.00;4.93;;;;;;;16.43;100.00;98405.69;5163612;23;21142;-89
2022/10/26 09:05:49;;;;;;;9.83;4.93;;;;;;;16.48;100.00;98411.38;5162876;23;20560;-90
2022/10/26 09:07:56;;;;;;;10.60;6.03;;;;;;;16.50;100.00;98401.56;5138571;23;20604;-90
2022/10/26 09:10:05;;;;;;;7.60;6.20;;;;;;;16.46;100.00;98390.44;5190856;22;20562;-89
2022/10/26 09:12:16;;;;;;;14.40;6.57;;;;;;;16.50;100.00;98409.47;5140190;23;20612;-90
2022/10/26 09:14:21;;;;;;;11.67;6.57;;;;;;;16.51;100.00;98410.16;5164780;23;20685;-90
2022/10/26 09:16:28;;;;;;;8.43;6.33;;;;;;;16.51;100.00;98415.41;5165222;23;20564;-90
2022/10/26 09:18:46;;;;;;;11.23;6.00;;;;;;;16.54;100.00;98415.16;5165261;23;20582;-88
2022/10/26 09:21:08;;;;;;;8.03;6.40;;;;;;;16.56;100.00;98421.09;5164946;23;20575;-90
2022/10/26 09:23:21;;;;;;;9.60;6.40;;;;;;;16.60;100.00;98429.59;5191376;22;20907;-89
2022/10/26 09:25:27;;;;;;;10.80;5.40;;;;;;;16.62;100.00;98432.94;5191524;22;20570;-89
2022/10/26 09:27:35;;;;;;;8.57;5.80;;;;;;;16.64;100.00;98426.56;5165007;23;20575;-89
2022/10/26 09:29:41;;;;;;;10.43;6.53;;;;;;;16.71;100.00;98432.94;5139850;23;20633;-89
2022/10/26 09:31:46;;;;;;;9.47;6.47;;;;;;;16.75;100.00;98436.16;5164350;23;20604;-89
2022/10/26 09:33:49;;;;;;;9.33;7.07;;;;;;;16.80;100.00;98432.16;5139719;23;20634;-89
2022/10/26 09:35:55;;;;;;;8.03;5.53;;;;;;;16.83;100.00;98439.78;5191670;22;20551;-90
2022/10/26 09:38:03;;;;;;;7.80;5.80;;;;;;;16.86;100.00;98444.78;5164908;23;20581;-90
2022/10/26 09:40:11;;;;;;;9.43;5.87;;;;;;;16.89;100.00;98455.06;5165104;23;20635;-89